sensor_id;sensor_type;location;lat;lon;timestamp;temperature;humidity
16128;DHT22;8168;49.036;7.690;2023-03-01T00:11:06;1.50;98.70
16128;DHT22;8168;49.036;7.690;2023-03-01T00:13:37;1.50;98.80
16128;DHT22;8168;49.036;7.690;2023-03-01T00:16:11;1.50;98.70
16128;DHT22;8168;49.036;7.690;2023-03-01T00:26:18;1.50;98.80
16128;DHT22;8168;49.036;7.690;2023-03-01T00:31:23;1.50;98.80
16128;DHT22;8168;49.036;7.690;2023-03-01T00:33:55;1.50;98.90
16128;DHT22;8168;49.036;7.690;2023-03-01T00:36:31;1.50;98.80
16128;DHT22;8168;49.036;7.690;2023-03-01T00:39:04;1.50;98.80
16128;DHT22;8168;49.036;7.690;2023-03-01T01:11:50;0.90;99.10
16128;DHT22;8168;49.036;7.690;2023-03-01T01:29:27;0.80;99.70
16128;DHT22;8168;49.036;7.690;2023-03-01T01:39:34;0.80;99.70
16128;DHT22;8168;49.036;7.690;2023-03-01T01:47:16;0.70;99.90
16128;DHT22;8168;49.036;7.690;2023-03-01T01:49:51;0.60;99.90
16128;DHT22;8168;49.036;7.690;2023-03-01T01:52:34;0.70;99.90
16128;DHT22;8168;49.036;7.690;2023-03-01T01:55:14;0.70;99.90
16128;DHT22;8168;49.036;7.690;2023-03-01T01:57:54;0.70;99.90
16128;DHT22;8168;49.036;7.690;2023-03-01T02:00:28;0.60;99.90
16128;DHT22;8168;49.036;7.690;2023-03-01T02:03:24;0.60;99.90
16128;DHT22;8168;49.036;7.690;2023-03-01T02:06:29;0.60;99.90
16128;DHT22;8168;49.036;7.690;2023-03-01T02:09:05;0.40;99.90
16128;DHT22;8168;49.036;7.690;2023-03-01T02:11:37;0.40;99.90
16128;DHT22;8168;49.036;7.690;2023-03-01T02:19:17;0.40;99.90
16128;DHT22;8168;49.036;7.690;2023-03-01T02:22:06;0.30;99.90
16128;DHT22;8168;49.036;7.690;2023-03-01T02:25:12;0.30;99.90
16128;DHT22;8168;49.036;7.690;2023-03-01T02:35:19;0.70;99.90
16128;DHT22;8168;49.036;7.690;2023-03-01T02:42:55;0.40;99.90
16128;DHT22;8168;49.036;7.690;2023-03-01T02:45:27;0.40;99.90
16128;DHT22;8168;49.036;7.690;2023-03-01T02:58:02;0.50;99.90
16128;DHT22;8168;49.036;7.690;2023-03-01T03:00:37;0.60;99.90
16128;DHT22;8168;49.036;7.690;2023-03-01T03:03:12;0.60;99.90
16128;DHT22;8168;49.036;7.690;2023-03-01T03:05:43;0.60;99.90
16128;DHT22;8168;49.036;7.690;2023-03-01T03:26:03;0.70;99.90
16128;DHT22;8168;49.036;7.690;2023-03-01T03:36:16;0.80;99.90
16128;DHT22;8168;49.036;7.690;2023-03-01T04:14:09;0.60;99.90
16128;DHT22;8168;49.036;7.690;2023-03-01T04:31:47;0.60;99.90
16128;DHT22;8168;49.036;7.690;2023-03-01T04:54:33;0.10;99.90
16128;DHT22;8168;49.036;7.690;2023-03-01T05:14:41;0.00;99.90
16128;DHT22;8168;49.036;7.690;2023-03-01T05:29:48;-0.30;99.90
16128;DHT22;8168;49.036;7.690;2023-03-01T06:05:09;-0.60;99.90
16128;DHT22;8168;49.036;7.690;2023-03-01T06:10:12;-0.40;99.90
16128;DHT22;8168;49.036;7.690;2023-03-01T06:15:15;-0.40;99.90
16128;DHT22;8168;49.036;7.690;2023-03-01T06:20:23;-0.40;99.90
16128;DHT22;8168;49.036;7.690;2023-03-01T06:25:26;-0.30;99.90
16128;DHT22;8168;49.036;7.690;2023-03-01T06:32:59;-0.30;99.90
16128;DHT22;8168;49.036;7.690;2023-03-01T06:35:31;-0.40;99.90
16128;DHT22;8168;49.036;7.690;2023-03-01T06:38:03;-0.40;99.90
16128;DHT22;8168;49.036;7.690;2023-03-01T06:55:44;-0.10;99.90
16128;DHT22;8168;49.036;7.690;2023-03-01T07:05:49;0.20;99.90
16128;DHT22;8168;49.036;7.690;2023-03-01T07:08:22;0.10;99.90
16128;DHT22;8168;49.036;7.690;2023-03-01T07:10:57;0.20;99.90
16128;DHT22;8168;49.036;7.690;2023-03-01T07:21:08;0.40;99.90
16128;DHT22;8168;49.036;7.690;2023-03-01T08:08:57;1.20;99.90
16128;DHT22;8168;49.036;7.690;2023-03-01T08:19:07;1.40;99.90
16128;DHT22;8168;49.036;7.690;2023-03-01T08:34:16;1.80;99.90
16128;DHT22;8168;49.036;7.690;2023-03-01T08:36:47;1.80;99.90
16128;DHT22;8168;49.036;7.690;2023-03-01T08:39:19;1.90;99.90
16128;DHT22;8168;49.036;7.690;2023-03-01T08:49:24;2.00;99.90
16128;DHT22;8168;49.036;7.690;2023-03-01T09:09:34;2.50;99.90
16128;DHT22;8168;49.036;7.690;2023-03-01T09:12:06;2.50;99.90
16128;DHT22;8168;49.036;7.690;2023-03-01T09:17:09;2.60;99.90
16128;DHT22;8168;49.036;7.690;2023-03-01T09:40:20;3.10;99.90
16128;DHT22;8168;49.036;7.690;2023-03-01T09:43:03;3.20;99.90
16128;DHT22;8168;49.036;7.690;2023-03-01T09:45:41;3.30;99.90
16128;DHT22;8168;49.036;7.690;2023-03-01T09:48:20;3.40;99.90
16128;DHT22;8168;49.036;7.690;2023-03-01T09:53:32;3.60;99.90
16128;DHT22;8168;49.036;7.690;2023-03-01T09:56:13;3.60;99.90
16128;DHT22;8168;49.036;7.690;2023-03-01T10:10:40;4.20;99.90
16128;DHT22;8168;49.036;7.690;2023-03-01T10:13:33;4.50;99.90
16128;DHT22;8168;49.036;7.690;2023-03-01T10:16:14;4.80;99.90
16128;DHT22;8168;49.036;7.690;2023-03-01T10:18:55;4.90;99.90
16128;DHT22;8168;49.036;7.690;2023-03-01T10:21:29;4.80;98.30
16128;DHT22;8168;49.036;7.690;2023-03-01T10:24:13;4.80;99.10
16128;DHT22;8168;49.036;7.690;2023-03-01T10:26:55;4.90;99.40
16128;DHT22;8168;49.036;7.690;2023-03-01T10:29:34;5.10;99.20
16128;DHT22;8168;49.036;7.690;2023-03-01T10:32:09;5.10;99.00
16128;DHT22;8168;49.036;7.690;2023-03-01T10:34:41;5.20;99.40
16128;DHT22;8168;49.036;7.690;2023-03-01T10:37:14;5.30;98.50
16128;DHT22;8168;49.036;7.690;2023-03-01T10:42:35;5.40;98.70
16128;DHT22;8168;49.036;7.690;2023-03-01T10:45:19;5.40;99.10
16128;DHT22;8168;49.036;7.690;2023-03-01T10:48:24;5.60;98.10
16128;DHT22;8168;49.036;7.690;2023-03-01T10:53:34;5.60;98.10
16128;DHT22;8168;49.036;7.690;2023-03-01T10:56:10;6.80;98.90
16128;DHT22;8168;49.036;7.690;2023-03-01T10:59:04;5.70;97.30
16128;DHT22;8168;49.036;7.690;2023-03-01T11:01:35;5.70;97.60
16128;DHT22;8168;49.036;7.690;2023-03-01T11:06:38;5.90;97.70
16128;DHT22;8168;49.036;7.690;2023-03-01T11:09:21;5.90;97.70
16128;DHT22;8168;49.036;7.690;2023-03-01T11:11:54;6.00;97.10
16128;DHT22;8168;49.036;7.690;2023-03-01T11:14:33;6.20;97.30
16128;DHT22;8168;49.036;7.690;2023-03-01T11:17:21;6.20;96.90
16128;DHT22;8168;49.036;7.690;2023-03-01T11:22:55;6.40;96.40
16128;DHT22;8168;49.036;7.690;2023-03-01T11:25:31;6.30;95.90
16128;DHT22;8168;49.036;7.690;2023-03-01T11:28:05;6.30;95.20
16128;DHT22;8168;49.036;7.690;2023-03-01T11:30:45;6.30;95.20
16128;DHT22;8168;49.036;7.690;2023-03-01T11:33:23;6.80;96.20
16128;DHT22;8168;49.036;7.690;2023-03-01T11:36:06;6.40;95.40
16128;DHT22;8168;49.036;7.690;2023-03-01T11:38:38;6.20;94.70
16128;DHT22;8168;49.036;7.690;2023-03-01T11:41:21;6.10;94.40
16128;DHT22;8168;49.036;7.690;2023-03-01T11:43:59;5.90;94.90
16128;DHT22;8168;49.036;7.690;2023-03-01T11:46:59;6.00;95.00
16128;DHT22;8168;49.036;7.690;2023-03-01T12:20:57;6.80;95.00
16128;DHT22;8168;49.036;7.690;2023-03-01T12:37:35;7.60;95.50
16128;DHT22;8168;49.036;7.690;2023-03-01T12:51:14;7.60;93.70
16128;DHT22;8168;49.036;7.690;2023-03-01T12:53:51;7.60;93.10
16128;DHT22;8168;49.036;7.690;2023-03-01T12:56:25;8.10;93.80
16128;DHT22;8168;49.036;7.690;2023-03-01T12:59:13;7.50;92.90
16128;DHT22;8168;49.036;7.690;2023-03-01T13:04:28;7.80;93.90
16128;DHT22;8168;49.036;7.690;2023-03-01T13:18:02;7.60;92.60
16128;DHT22;8168;49.036;7.690;2023-03-01T13:26:15;7.90;93.80
16128;DHT22;8168;49.036;7.690;2023-03-01T13:33:51;7.90;91.90
16128;DHT22;8168;49.036;7.690;2023-03-01T13:41:59;7.90;92.10
16128;DHT22;8168;49.036;7.690;2023-03-01T13:44:37;8.00;92.10
16128;DHT22;8168;49.036;7.690;2023-03-01T13:49:58;8.10;90.70
16128;DHT22;8168;49.036;7.690;2023-03-01T13:55:00;7.50;91.90
16128;DHT22;8168;49.036;7.690;2023-03-01T13:57:36;8.20;92.70
16128;DHT22;8168;49.036;7.690;2023-03-01T14:03:16;7.90;90.90
16128;DHT22;8168;49.036;7.690;2023-03-01T14:08:36;7.80;91.70
16128;DHT22;8168;49.036;7.690;2023-03-01T14:14:40;8.10;91.80
16128;DHT22;8168;49.036;7.690;2023-03-01T14:17:16;8.20;91.60
16128;DHT22;8168;49.036;7.690;2023-03-01T14:20:11;8.20;90.50
16128;DHT22;8168;49.036;7.690;2023-03-01T14:22:43;8.20;91.30
16128;DHT22;8168;49.036;7.690;2023-03-01T14:25:29;8.20;90.60
16128;DHT22;8168;49.036;7.690;2023-03-01T14:28:17;8.20;91.10
16128;DHT22;8168;49.036;7.690;2023-03-01T14:30:54;8.10;90.90
16128;DHT22;8168;49.036;7.690;2023-03-01T14:38:38;8.10;90.60
16128;DHT22;8168;49.036;7.690;2023-03-01T14:41:17;8.10;90.60
16128;DHT22;8168;49.036;7.690;2023-03-01T14:43:50;8.10;90.10
16128;DHT22;8168;49.036;7.690;2023-03-01T14:49:01;8.20;90.80
16128;DHT22;8168;49.036;7.690;2023-03-01T14:51:37;8.10;90.50
16128;DHT22;8168;49.036;7.690;2023-03-01T14:54:31;8.10;90.30
16128;DHT22;8168;49.036;7.690;2023-03-01T14:57:05;8.00;90.50
16128;DHT22;8168;49.036;7.690;2023-03-01T14:59:36;8.00;90.60
16128;DHT22;8168;49.036;7.690;2023-03-01T15:02:15;8.00;90.30
16128;DHT22;8168;49.036;7.690;2023-03-01T15:04:50;7.90;90.80
16128;DHT22;8168;49.036;7.690;2023-03-01T15:07:22;8.00;90.70
16128;DHT22;8168;49.036;7.690;2023-03-01T15:09:57;8.00;90.40
16128;DHT22;8168;49.036;7.690;2023-03-01T15:14:58;8.00;90.30
16128;DHT22;8168;49.036;7.690;2023-03-01T15:17:35;8.00;89.20
16128;DHT22;8168;49.036;7.690;2023-03-01T15:20:17;8.00;89.60
16128;DHT22;8168;49.036;7.690;2023-03-01T15:22:48;8.00;89.60
16128;DHT22;8168;49.036;7.690;2023-03-01T15:25:21;8.10;90.10
16128;DHT22;8168;49.036;7.690;2023-03-01T15:27:54;8.10;90.30
16128;DHT22;8168;49.036;7.690;2023-03-01T15:30:32;8.10;90.30
16128;DHT22;8168;49.036;7.690;2023-03-01T15:33:39;8.10;89.60
16128;DHT22;8168;49.036;7.690;2023-03-01T15:36:36;8.10;89.40
16128;DHT22;8168;49.036;7.690;2023-03-01T15:39:38;8.00;89.20
16128;DHT22;8168;49.036;7.690;2023-03-01T15:42:35;8.00;89.70
16128;DHT22;8168;49.036;7.690;2023-03-01T15:47:58;8.10;90.00
16128;DHT22;8168;49.036;7.690;2023-03-01T15:50:35;8.00;90.20
16128;DHT22;8168;49.036;7.690;2023-03-01T15:53:10;7.90;89.90
16128;DHT22;8168;49.036;7.690;2023-03-01T15:55:42;8.00;89.60
16128;DHT22;8168;49.036;7.690;2023-03-01T15:58:18;7.90;90.30
16128;DHT22;8168;49.036;7.690;2023-03-01T16:00:49;7.90;90.00
16128;DHT22;8168;49.036;7.690;2023-03-01T16:03:26;8.00;90.10
16128;DHT22;8168;49.036;7.690;2023-03-01T16:05:56;7.80;89.60
16128;DHT22;8168;49.036;7.690;2023-03-01T16:08:27;7.70;89.50
16128;DHT22;8168;49.036;7.690;2023-03-01T16:10:58;7.60;90.00
16128;DHT22;8168;49.036;7.690;2023-03-01T16:13:28;7.50;90.00
16128;DHT22;8168;49.036;7.690;2023-03-01T16:15:59;7.60;90.50
16128;DHT22;8168;49.036;7.690;2023-03-01T16:18:30;8.00;90.60
16128;DHT22;8168;49.036;7.690;2023-03-01T16:21:00;8.00;90.70
16128;DHT22;8168;49.036;7.690;2023-03-01T16:23:31;7.90;90.60
16128;DHT22;8168;49.036;7.690;2023-03-01T16:26:01;7.80;90.30
16128;DHT22;8168;49.036;7.690;2023-03-01T16:28:32;7.60;89.50
16128;DHT22;8168;49.036;7.690;2023-03-01T16:31:03;7.80;89.90
16128;DHT22;8168;49.036;7.690;2023-03-01T16:33:35;4.10;86.40
16128;DHT22;8168;49.036;7.690;2023-03-01T16:36:11;7.50;90.00
16128;DHT22;8168;49.036;7.690;2023-03-01T16:38:42;7.50;89.90
16128;DHT22;8168;49.036;7.690;2023-03-01T16:41:15;7.50;89.50
16128;DHT22;8168;49.036;7.690;2023-03-01T16:43:46;7.40;90.10
16128;DHT22;8168;49.036;7.690;2023-03-01T16:46:19;7.80;90.20
16128;DHT22;8168;49.036;7.690;2023-03-01T16:48:51;7.40;89.80
16128;DHT22;8168;49.036;7.690;2023-03-01T16:51:22;7.70;90.10
16128;DHT22;8168;49.036;7.690;2023-03-01T16:53:53;7.40;90.00
16128;DHT22;8168;49.036;7.690;2023-03-01T16:56:24;7.70;89.70
16128;DHT22;8168;49.036;7.690;2023-03-01T16:58:54;7.80;90.00
16128;DHT22;8168;49.036;7.690;2023-03-01T17:01:25;7.70;90.20
16128;DHT22;8168;49.036;7.690;2023-03-01T17:03:56;7.20;90.00
16128;DHT22;8168;49.036;7.690;2023-03-01T17:06:26;7.20;90.00
16128;DHT22;8168;49.036;7.690;2023-03-01T17:08:58;7.50;90.30
16128;DHT22;8168;49.036;7.690;2023-03-01T17:11:29;7.00;90.20
16128;DHT22;8168;49.036;7.690;2023-03-01T17:14:00;7.40;90.30
16128;DHT22;8168;49.036;7.690;2023-03-01T17:16:30;7.00;90.10
16128;DHT22;8168;49.036;7.690;2023-03-01T17:19:01;6.80;90.20
16128;DHT22;8168;49.036;7.690;2023-03-01T17:21:32;7.00;90.40
16128;DHT22;8168;49.036;7.690;2023-03-01T17:24:03;6.60;90.40
16128;DHT22;8168;49.036;7.690;2023-03-01T17:26:37;6.50;90.60
16128;DHT22;8168;49.036;7.690;2023-03-01T17:29:08;6.50;90.80
16128;DHT22;8168;49.036;7.690;2023-03-01T17:31:39;6.40;90.90
16128;DHT22;8168;49.036;7.690;2023-03-01T17:34:09;6.30;91.00
16128;DHT22;8168;49.036;7.690;2023-03-01T17:36:40;6.20;91.30
16128;DHT22;8168;49.036;7.690;2023-03-01T17:39:13;6.20;91.40
16128;DHT22;8168;49.036;7.690;2023-03-01T17:41:44;6.20;91.60
16128;DHT22;8168;49.036;7.690;2023-03-01T17:44:15;6.00;91.60
16128;DHT22;8168;49.036;7.690;2023-03-01T17:46:45;5.90;91.80
16128;DHT22;8168;49.036;7.690;2023-03-01T17:49:16;5.80;91.90
16128;DHT22;8168;49.036;7.690;2023-03-01T17:51:47;5.80;92.00
16128;DHT22;8168;49.036;7.690;2023-03-01T17:54:18;5.80;92.10
16128;DHT22;8168;49.036;7.690;2023-03-01T17:56:49;5.60;92.00
16128;DHT22;8168;49.036;7.690;2023-03-01T17:59:20;5.70;92.20
16128;DHT22;8168;49.036;7.690;2023-03-01T18:01:51;5.50;92.20
16128;DHT22;8168;49.036;7.690;2023-03-01T18:04:22;5.40;92.10
16128;DHT22;8168;49.036;7.690;2023-03-01T18:06:53;5.40;92.00
16128;DHT22;8168;49.036;7.690;2023-03-01T18:09:26;5.30;91.90
16128;DHT22;8168;49.036;7.690;2023-03-01T18:11:57;5.30;92.00
16128;DHT22;8168;49.036;7.690;2023-03-01T18:14:28;5.10;92.10
16128;DHT22;8168;49.036;7.690;2023-03-01T18:17:03;4.80;92.20
16128;DHT22;8168;49.036;7.690;2023-03-01T18:19:40;4.90;92.50
16128;DHT22;8168;49.036;7.690;2023-03-01T18:22:12;4.80;92.50
16128;DHT22;8168;49.036;7.690;2023-03-01T18:24:44;4.70;92.50
16128;DHT22;8168;49.036;7.690;2023-03-01T18:27:15;4.60;93.10
16128;DHT22;8168;49.036;7.690;2023-03-01T18:29:45;4.40;92.90
16128;DHT22;8168;49.036;7.690;2023-03-01T18:32:16;4.60;93.20
16128;DHT22;8168;49.036;7.690;2023-03-01T18:39:52;3.80;93.40
16128;DHT22;8168;49.036;7.690;2023-03-01T18:42:23;3.70;93.70
16128;DHT22;8168;49.036;7.690;2023-03-01T18:44:54;3.70;93.70
16128;DHT22;8168;49.036;7.690;2023-03-01T18:49:55;3.60;94.20
16128;DHT22;8168;49.036;7.690;2023-03-01T18:57:28;3.50;94.50
16128;DHT22;8168;49.036;7.690;2023-03-01T18:59:58;3.30;94.70
16128;DHT22;8168;49.036;7.690;2023-03-01T19:02:29;3.40;95.00
16128;DHT22;8168;49.036;7.690;2023-03-01T19:05:00;3.20;94.90
16128;DHT22;8168;49.036;7.690;2023-03-01T19:12:34;2.90;95.30
16128;DHT22;8168;49.036;7.690;2023-03-01T19:20:07;2.80;95.50
16128;DHT22;8168;49.036;7.690;2023-03-01T20:10:31;1.70;98.20
16128;DHT22;8168;49.036;7.690;2023-03-01T20:15:33;1.60;98.50
16128;DHT22;8168;49.036;7.690;2023-03-01T20:23:06;1.70;98.50
16128;DHT22;8168;49.036;7.690;2023-03-01T20:35:41;1.70;98.70
16128;DHT22;8168;49.036;7.690;2023-03-01T21:06:00;1.30;99.40
16128;DHT22;8168;49.036;7.690;2023-03-01T21:08:32;1.20;99.50
16128;DHT22;8168;49.036;7.690;2023-03-01T21:13:35;1.10;99.80
16128;DHT22;8168;49.036;7.690;2023-03-01T21:16:08;1.00;99.70
16128;DHT22;8168;49.036;7.690;2023-03-01T21:18:40;0.90;99.70
16128;DHT22;8168;49.036;7.690;2023-03-01T21:21:17;0.90;99.80
16128;DHT22;8168;49.036;7.690;2023-03-01T21:23:48;0.80;99.90
16128;DHT22;8168;49.036;7.690;2023-03-01T21:26:21;2.80;99.90
16128;DHT22;8168;49.036;7.690;2023-03-01T21:28:55;0.70;99.90
16128;DHT22;8168;49.036;7.690;2023-03-01T21:31:28;0.70;99.90
16128;DHT22;8168;49.036;7.690;2023-03-01T21:34:04;0.60;99.90
16128;DHT22;8168;49.036;7.690;2023-03-01T21:41:37;0.40;99.90
16128;DHT22;8168;49.036;7.690;2023-03-01T21:54:14;0.30;99.90
16128;DHT22;8168;49.036;7.690;2023-03-01T21:56:46;0.30;99.90
16128;DHT22;8168;49.036;7.690;2023-03-01T21:59:22;0.30;99.90
16128;DHT22;8168;49.036;7.690;2023-03-01T23:12:27;-0.40;99.90
16128;DHT22;8168;49.036;7.690;2023-03-01T23:20:00;-0.20;99.90
16128;DHT22;8168;49.036;7.690;2023-03-01T23:25:03;-0.10;99.90
16128;DHT22;8168;49.036;7.690;2023-03-01T23:27:35;-0.10;99.90
16128;DHT22;8168;49.036;7.690;2023-03-01T23:30:07;0.00;99.90
16128;DHT22;8168;49.036;7.690;2023-03-01T23:40:12;0.10;99.90
16128;DHT22;8168;49.036;7.690;2023-03-01T23:50:16;0.30;99.90
16128;DHT22;8168;49.036;7.690;2023-03-01T23:55:18;0.40;99.90
